Map

Track Data

SID SEASON NUMBER BASIN SUBBASIN NAME ISO_TIME NATURE LAT LON WMO_WIND WMO_PRES WMO_AGENCY TRACK_TYPE DIST2LAND LANDFALL IFLAG USA_AGENCY USA_ATCF_ID USA_LAT USA_LON USA_RECORD USA_STATUS USA_WIND USA_PRES USA_SSHS USA_R34_NE USA_R34_SE USA_R34_SW USA_R34_NW USA_R50_NE USA_R50_SE USA_R50_SW USA_R50_NW USA_R64_NE USA_R64_SE USA_R64_SW USA_R64_NW USA_POCI USA_ROCI USA_RMW USA_EYE TOKYO_LAT TOKYO_LON TOKYO_GRADE TOKYO_WIND TOKYO_PRES TOKYO_R50_DIR TOKYO_R50_LONG TOKYO_R50_SHORT TOKYO_R30_DIR TOKYO_R30_LONG TOKYO_R30_SHORT TOKYO_LAND CMA_LAT CMA_LON CMA_CAT CMA_WIND CMA_PRES HKO_LAT HKO_LON HKO_CAT HKO_WIND HKO_PRES NEWDELHI_LAT NEWDELHI_LON NEWDELHI_GRADE NEWDELHI_WIND NEWDELHI_PRES NEWDELHI_CI NEWDELHI_DP NEWDELHI_POCI REUNION_LAT REUNION_LON REUNION_TYPE REUNION_WIND REUNION_PRES REUNION_TNUM REUNION_CI REUNION_RMW REUNION_R34_NE REUNION_R34_SE REUNION_R34_SW REUNION_R34_NW REUNION_R50_NE REUNION_R50_SE REUNION_R50_SW REUNION_R50_NW REUNION_R64_NE REUNION_R64_SE REUNION_R64_SW REUNION_R64_NW BOM_LAT BOM_LON BOM_TYPE BOM_WIND BOM_PRES BOM_TNUM BOM_CI BOM_RMW BOM_R34_NE BOM_R34_SE BOM_R34_SW BOM_R34_NW BOM_R50_NE BOM_R50_SE BOM_R50_SW BOM_R50_NW BOM_R64_NE BOM_R64_SE BOM_R64_SW BOM_R64_NW BOM_ROCI BOM_POCI BOM_EYE BOM_POS_METHOD BOM_PRES_METHOD NADI_LAT NADI_LON NADI_CAT NADI_WIND NADI_PRES WELLINGTON_LAT WELLINGTON_LON WELLINGTON_WIND WELLINGTON_PRES DS824_LAT DS824_LON DS824_STAGE DS824_WIND DS824_PRES TD9636_LAT TD9636_LON TD9636_STAGE TD9636_WIND TD9636_PRES TD9635_LAT TD9635_LON TD9635_WIND TD9635_PRES TD9635_ROCI NEUMANN_LAT NEUMANN_LON NEUMANN_CLASS NEUMANN_WIND NEUMANN_PRES MLC_LAT MLC_LON MLC_CLASS MLC_WIND MLC_PRES USA_GUST BOM_GUST BOM_GUST_PER REUNION_GUST REUNION_GUST_PER USA_SEAHGT USA_SEARAD_NE USA_SEARAD_SE USA_SEARAD_SW USA_SEARAD_NW STORM_SPEED STORM_DIR
1940328N07149 1940 81 WP MM NOT_NAMED 1940-11-22 12:00:00 NR 7.20000 149.000 main 1057 1019 __________O___ -1 7.20000 149.000 2 41 263
1940328N07149 1940 81 WP MM NOT_NAMED 1940-11-22 15:00:00 NR 6.95274 146.975 main 1019 995 __________P___ -1 6.95274 146.975 2 40 263
1940328N07149 1940 81 WP MM NOT_NAMED 1940-11-22 18:00:00 NR 6.70983 145.049 main 1002 1002 __________P___ -1 6.70983 145.049 2 37 263
1940328N07149 1940 81 WP MM NOT_NAMED 1940-11-22 21:00:00 NR 6.48682 143.324 main 1031 978 __________P___ -1 6.48682 143.324 2 32 263
1940328N07149 1940 81 WP MM NOT_NAMED 1940-11-23 00:00:00 NR 6.30000 141.900 main 974 924 __________O___ -1 6.30000 141.900 2 25 263
1940328N07149 1940 81 WP MM NOT_NAMED 1940-11-23 03:00:00 NR 6.16525 140.836 main 920 888 __________P___ -1 6.16525 140.836 2 19 264
1940328N07149 1940 81 WP MM NOT_NAMED 1940-11-23 06:00:00 NR 6.09589 140.045 main 885 865 __________P___ -1 6.09589 140.045 2 14 268
1940328N07149 1940 81 WP MM NOT_NAMED 1940-11-23 09:00:00 NR 6.10374 139.407 main 865 848 __________P___ -1 6.10374 139.407 2 12 275
1940328N07149 1940 81 WP MM NOT_NAMED 1940-11-23 12:00:00 NR 6.20000 138.800 main 848 832 __________O___ -1 6.20000 138.800 2 14 281
1940328N07149 1940 81 WP MM NOT_NAMED 1940-11-23 15:00:00 NR 6.36386 138.059 main 842 832 __________P___ -1 6.36386 138.059 2 15 286
1940328N07149 1940 81 WP MM NOT_NAMED 1940-11-23 18:00:00 NR 6.61425 137.322 main 839 837 __________P___ -1 6.61425 137.322 2 16 291
1940328N07149 1940 81 WP MM NOT_NAMED 1940-11-23 21:00:00 NR 6.93253 136.574 main 858 858 __________P___ -1 6.93253 136.574 2 17 294
1940328N07149 1940 81 WP MM NOT_NAMED 1940-11-24 00:00:00 NR 7.30000 135.800 main 896 896 __________O___ -1 7.30000 135.800 2 17 295
1940328N07149 1940 81 WP MM NOT_NAMED 1940-11-24 03:00:00 NR 7.66133 134.982 main 909 838 __________P___ -1 7.66133 134.982 2 18 295
1940328N07149 1940 81 WP MM NOT_NAMED 1940-11-24 06:00:00 NR 8.06715 134.136 main 828 743 __________P___ -1 8.06715 134.136 2 19 297
1940328N07149 1940 81 WP MM NOT_NAMED 1940-11-24 09:00:00 NR 8.51437 133.272 main 743 655 __________P___ -1 8.51437 133.272 2 20 299
1940328N07149 1940 81 WP MM NOT_NAMED 1940-11-24 12:00:00 NR 9.00000 132.400 main 655 575 __________O___ -1 9.00000 132.400 2 21 300
1940328N07149 1940 81 WP MM NOT_NAMED 1940-11-24 15:00:00 NR 9.55084 131.481 main 578 493 __________P___ -1 9.55084 131.481 2 21 302
1940328N07149 1940 81 WP MM NOT_NAMED 1940-11-24 18:00:00 NR 10.1305 130.562 main 493 418 __________P___ -1 10.1305 130.562 2 21 303
1940328N07149 1940 81 WP MM NOT_NAMED 1940-11-24 21:00:00 NR 10.6948 129.687 main 418 339 __________P___ -1 10.6948 129.687 2 20 303
1940328N07149 1940 81 WP MM NOT_NAMED 1940-11-25 00:00:00 NR 11.2000 128.900 main 339 278 __________O___ -1 11.2000 128.900 2 17 302
1940328N07149 1940 81 WP MM NOT_NAMED 1940-11-25 03:00:00 NR 11.5800 128.259 main 280 230 __________P___ -1 11.5800 128.259 2 14 301
1940328N07149 1940 81 WP MM NOT_NAMED 1940-11-25 06:00:00 NR 11.9005 127.708 main 230 184 __________P___ -1 11.9005 127.708 2 12 301
1940328N07149 1940 81 WP MM NOT_NAMED 1940-11-25 09:00:00 NR 12.1959 127.203 main 184 134 __________P___ -1 12.1959 127.203 2 12 301
1940328N07149 1940 81 WP MM NOT_NAMED 1940-11-25 12:00:00 NR 12.5000 126.700 main 134 93 __________O___ -1 12.5000 126.700 2 12 300
1940328N07149 1940 81 WP MM NOT_NAMED 1940-11-25 15:00:00 NR 12.8162 126.099 main 93 74 __________P___ -1 12.8162 126.099 2 13 299
1940328N07149 1940 81 WP MM NOT_NAMED 1940-11-25 18:00:00 NR 13.1529 125.497 main 84 68 __________P___ -1 13.1529 125.497 2 14 302
1940328N07149 1940 81 WP MM NOT_NAMED 1940-11-25 21:00:00 NR 13.5381 124.921 main 58 10 __________P___ -1 13.5381 124.921 2 14 308
1940328N07149 1940 81 WP MM NOT_NAMED 1940-11-26 00:00:00 NR 14.0000 124.400 main 10 10 __________O___ -1 14.0000 124.400 2 15 314
1940328N07149 1940 81 WP MM NOT_NAMED 1940-11-26 03:00:00 NR 14.5788 123.828 main 74 74 __________P___ -1 14.5788 123.828 2 16 320
1940328N07149 1940 81 WP MM NOT_NAMED 1940-11-26 06:00:00 NR 15.2320 123.332 main 119 91 __________P___ -1 15.2320 123.332 2 16 329
1940328N07149 1940 81 WP MM NOT_NAMED 1940-11-26 09:00:00 NR 15.9191 122.995 main 91 54 __________P___ -1 15.9191 122.995 2 14 343
1940328N07149 1940 81 WP MM NOT_NAMED 1940-11-26 12:00:00 NR 16.6000 122.900 main 54 42 __________O___ -1 16.6000 122.900 2 14 5
1940328N07149 1940 81 WP MM NOT_NAMED 1940-11-26 15:00:00 NR 17.2549 123.125 main 72 72 __________P___ -1 17.2549 123.125 2 15 27
1940328N07149 1940 81 WP MM NOT_NAMED 1940-11-26 18:00:00 NR 17.8902 123.596 main 143 143 __________P___ -1 17.8902 123.596 2 16 40
1940328N07149 1940 81 WP MM NOT_NAMED 1940-11-26 21:00:00 NR 18.4803 124.219 main 200 200 __________P___ -1 18.4803 124.219 2 17 48
1940328N07149 1940 81 WP MM NOT_NAMED 1940-11-27 00:00:00 NR 19.0000 124.900 main 281 281 __________O___ -1 19.0000 124.900 2 15 51
1940328N07149 1940 81 WP MM NOT_NAMED 1940-11-27 03:00:00 NR 19.4337 125.482 main 354 354 __________P___ -1 19.4337 125.482 2 14 55
1940328N07149 1940 81 WP MM NOT_NAMED 1940-11-27 06:00:00 NR 19.7969 126.099 main 428 428 __________P___ -1 19.7969 126.099 2 14 60
1940328N07149 1940 81 WP MM NOT_NAMED 1940-11-27 09:00:00 NR 20.1117 126.741 main 499 499 __________P___ -1 20.1117 126.741 2 14 64
1940328N07149 1940 81 WP MM NOT_NAMED 1940-11-27 12:00:00 NR 20.4000 127.400 main 579 579 __________O___ -1 20.4000 127.400 2 14 65
1940328N07149 1940 81 WP MM NOT_NAMED 1940-11-27 15:00:00 NR 20.7086 128.077 main 659 659 __________P___ -1 20.7086 128.077 2 14 65
1940328N07149 1940 81 WP MM NOT_NAMED 1940-11-27 18:00:00 NR 20.9949 128.765 main 739 739 __________P___ -1 20.9949 128.765 2 14 67
1940328N07149 1940 81 WP MM NOT_NAMED 1940-11-27 21:00:00 NR 21.2587 129.446 main 810 810 __________P___ -1 21.2587 129.446 2 13 68
1940328N07149 1940 81 WP MM NOT_NAMED 1940-11-28 00:00:00 NR 21.5000 130.100 main 885 885 __________O___ -1 21.5000 130.100 2 13 69
1940328N07149 1940 81 WP MM NOT_NAMED 1940-11-28 03:00:00 NR 21.7248 130.721 main 951 951 __________P___ -1 21.7248 130.721 2 12 69
1940328N07149 1940 81 WP MM NOT_NAMED 1940-11-28 06:00:00 NR 21.9291 131.311 main 1003 998 __________P___ -1 21.9291 131.311 2 11 70
1940328N07149 1940 81 WP MM NOT_NAMED 1940-11-28 09:00:00 NR 22.1188 131.871 main 1001 984 __________P___ -1 22.1188 131.871 2 11 70
1940328N07149 1940 81 WP MM NOT_NAMED 1940-11-28 12:00:00 NR 22.3000 132.400 main 986 971 __________O___ -1 22.3000 132.400 2 10 69
1940328N07149 1940 81 WP MM NOT_NAMED 1940-11-28 15:00:00 NR 22.4778 132.901 main 974 967 __________P___ -1 22.4778 132.901 2 10 69
1940328N07149 1940 81 WP MM NOT_NAMED 1940-11-28 18:00:00 NR 22.6535 133.379 main 964 959 __________P___ -1 22.6535 133.379 2 9 68
1940328N07149 1940 81 WP MM NOT_NAMED 1940-11-28 21:00:00 NR 22.8275 133.843 main 965 958 __________P___ -1 22.8275 133.843 2 9 68
1940328N07149 1940 81 WP MM NOT_NAMED 1940-11-29 00:00:00 NR 23.0000 134.300 main 961 __________O___ -1 23.0000 134.300 2 9 68

Digital Typhoon Data and Search

About IBTrACS Database

This database is a web-friendly format of International Best Track Archive for Climate Stewardship (IBTrACS), a global best track data archive curated by NOAA dating back to 1842.

Updated: 2021-10-08